createdAt,value
2022-11-24T00:01:16.795Z,11.10
2022-11-24T00:03:52.872Z,11.10
2022-11-24T00:06:19.965Z,11.10
2022-11-24T00:08:47.266Z,11.10
2022-11-24T00:11:20.020Z,11.10
2022-11-24T00:13:47.249Z,11.10
2022-11-24T00:16:20.553Z,11.10
2022-11-24T00:18:49.687Z,11.00
2022-11-24T00:21:17.913Z,11.00
2022-11-24T00:23:45.805Z,11.00
2022-11-24T00:26:21.522Z,11.30
2022-11-24T00:28:50.060Z,11.10
2022-11-24T00:31:24.640Z,11.30
2022-11-24T00:33:53.487Z,11.10
2022-11-24T00:36:22.107Z,11.10
2022-11-24T00:38:53.071Z,11.10
2022-11-24T00:41:19.991Z,11.10
2022-11-24T00:43:46.755Z,11.10
2022-11-24T00:46:13.732Z,11.10
2022-11-24T00:48:40.698Z,11.30
2022-11-24T00:51:09.819Z,11.10
2022-11-24T00:53:37.075Z,11.10
2022-11-24T00:56:04.111Z,11.10
2022-11-24T00:58:31.726Z,11.10
2022-11-24T01:01:10.883Z,12.30
2022-11-24T01:03:38.054Z,11.20
2022-11-24T01:06:11.389Z,11.20
2022-11-24T01:08:39.808Z,11.10
2022-11-24T01:11:08.591Z,11.10
2022-11-24T01:13:35.492Z,11.10
2022-11-24T01:16:02.458Z,11.10
2022-11-24T01:18:29.366Z,11.20
2022-11-24T01:20:56.076Z,11.20
2022-11-24T01:23:22.945Z,11.00
2022-11-24T01:25:49.621Z,11.10
2022-11-24T01:28:16.342Z,11.10
2022-11-24T01:30:43.170Z,11.20
2022-11-24T01:33:10.266Z,11.20
2022-11-24T01:35:36.982Z,11.00
2022-11-24T01:38:03.833Z,11.00
2022-11-24T01:40:30.567Z,11.00
2022-11-24T01:42:57.280Z,11.00
2022-11-24T01:45:32.832Z,11.40
2022-11-24T01:48:01.252Z,11.00
2022-11-24T01:50:28.436Z,11.00
2022-11-24T01:52:56.806Z,11.10
2022-11-24T01:55:31.539Z,11.10
2022-11-24T01:58:06.405Z,11.10
2022-11-24T02:00:36.354Z,11.10
2022-11-24T02:03:03.237Z,11.10
2022-11-24T02:05:58.653Z,11.10
2022-11-24T02:09:03.467Z,11.10
2022-11-24T02:11:35.913Z,11.00
2022-11-24T02:14:05.906Z,11.00
2022-11-24T02:16:35.802Z,11.00
2022-11-24T02:19:09.177Z,12.00
2022-11-24T02:21:36.024Z,11.20
2022-11-24T02:24:47.281Z,11.10
2022-11-24T02:27:14.097Z,11.10
2022-11-24T02:29:41.546Z,11.10
2022-11-24T02:32:10.797Z,11.10
2022-11-24T02:34:37.756Z,11.20
2022-11-24T02:37:04.506Z,11.30
2022-11-24T02:39:31.251Z,11.10
2022-11-24T02:42:02.979Z,11.10
2022-11-24T02:44:36.455Z,11.10
2022-11-24T02:47:09.417Z,11.00
2022-11-24T02:49:36.511Z,11.00
2022-11-24T02:52:04.044Z,11.00
2022-11-24T02:54:31.801Z,11.00
2022-11-24T02:56:58.916Z,11.10
2022-11-24T02:59:25.846Z,11.10
2022-11-24T03:01:52.867Z,11.10
2022-11-24T03:04:19.767Z,11.00
2022-11-24T03:06:46.508Z,11.00
2022-11-24T03:09:13.293Z,11.10
2022-11-24T03:11:40.117Z,11.00
2022-11-24T03:14:07.449Z,11.10
2022-11-24T03:16:34.313Z,11.10
2022-11-24T03:19:01.915Z,11.20
2022-11-24T03:21:28.824Z,11.10
2022-11-24T03:23:55.733Z,11.10
2022-11-24T03:26:23.958Z,11.10
2022-11-24T03:28:54.392Z,11.10
2022-11-24T03:31:21.503Z,11.00
2022-11-24T03:33:48.265Z,11.00
2022-11-24T03:36:15.104Z,11.00
2022-11-24T03:38:41.771Z,11.00
2022-11-24T03:41:08.691Z,11.00
2022-11-24T03:43:40.446Z,11.00
2022-11-24T03:46:10.299Z,11.10
2022-11-24T03:48:37.026Z,11.00
2022-11-24T03:51:03.951Z,11.00
2022-11-24T03:53:32.337Z,10.90
2022-11-24T03:55:59.480Z,10.90
2022-11-24T03:58:26.365Z,10.90
2022-11-24T04:00:54.365Z,10.90
2022-11-24T04:03:21.834Z,10.90
2022-11-24T04:05:48.607Z,10.90
2022-11-24T04:08:16.338Z,10.90
2022-11-24T04:10:43.474Z,10.90
2022-11-24T04:13:17.881Z,10.90
2022-11-24T04:15:45.251Z,10.90
2022-11-24T04:18:13.147Z,10.90
2022-11-24T04:20:40.764Z,10.90
2022-11-24T04:23:08.175Z,10.90
2022-11-24T04:25:35.725Z,10.90
2022-11-24T04:28:02.513Z,11.50
2022-11-24T04:30:29.684Z,10.90
2022-11-24T04:32:57.347Z,10.90
2022-11-24T04:35:24.435Z,10.90
2022-11-24T04:37:51.389Z,11.10
2022-11-24T04:40:18.513Z,10.90
2022-11-24T04:42:53.398Z,10.90
2022-11-24T04:45:20.320Z,10.90
2022-11-24T04:47:47.061Z,10.90
2022-11-24T04:50:14.028Z,10.90
2022-11-24T04:52:40.837Z,10.90
2022-11-24T04:55:08.304Z,10.90
2022-11-24T04:57:35.089Z,10.80
2022-11-24T05:00:01.856Z,10.90
2022-11-24T05:02:28.570Z,10.90
2022-11-24T05:04:55.605Z,10.90
2022-11-24T05:07:23.273Z,10.90
2022-11-24T05:10:09.122Z,10.90
2022-11-24T05:12:36.965Z,10.90
2022-11-24T05:15:05.527Z,10.90
2022-11-24T05:17:34.698Z,10.90
2022-11-24T05:20:01.442Z,11.00
2022-11-24T05:22:31.802Z,11.00
2022-11-24T05:24:58.653Z,11.00
2022-11-24T05:27:25.606Z,10.90
2022-11-24T05:29:52.534Z,10.90
2022-11-24T05:32:19.303Z,11.10
2022-11-24T05:34:46.330Z,11.00
2022-11-24T05:37:13.030Z,10.90
2022-11-24T05:39:39.754Z,10.90
2022-11-24T05:42:26.416Z,10.90
2022-11-24T05:44:54.416Z,11.10
2022-11-24T05:47:22.123Z,10.90
2022-11-24T05:49:48.944Z,10.90
2022-11-24T05:52:16.524Z,10.90
2022-11-24T05:54:43.304Z,10.90
2022-11-24T05:57:10.356Z,10.90
2022-11-24T05:59:37.076Z,11.00
2022-11-24T06:02:04.055Z,10.80
2022-11-24T06:04:31.594Z,11.10
2022-11-24T06:06:58.484Z,10.80
2022-11-24T06:09:25.257Z,12.10
2022-11-24T06:11:52.033Z,10.80
2022-11-24T06:14:18.882Z,10.80
2022-11-24T06:16:45.651Z,10.80
2022-11-24T06:19:12.715Z,10.80
2022-11-24T06:21:39.429Z,10.80
2022-11-24T06:24:06.662Z,10.80
2022-11-24T06:26:33.774Z,10.80
2022-11-24T06:29:00.581Z,10.90
2022-11-24T06:31:27.547Z,10.90
2022-11-24T06:33:54.393Z,10.90
2022-11-24T06:36:21.458Z,11.60
2022-11-24T06:38:48.342Z,10.90
2022-11-24T06:41:16.026Z,10.90
2022-11-24T06:43:43.249Z,10.90
2022-11-24T06:46:11.120Z,10.90
2022-11-24T06:48:38.217Z,10.90
2022-11-24T06:51:10.671Z,10.80
2022-11-24T06:53:38.642Z,10.90
2022-11-24T06:56:16.375Z,10.90
2022-11-24T06:58:45.803Z,10.80
2022-11-24T07:01:16.618Z,10.80
2022-11-24T07:03:43.554Z,10.80
2022-11-24T07:06:10.651Z,10.80
2022-11-24T07:08:37.517Z,10.80
2022-11-24T07:11:06.224Z,11.70
2022-11-24T07:13:33.392Z,10.80
2022-11-24T07:16:01.327Z,11.00
2022-11-24T07:18:28.097Z,11.20
2022-11-24T07:20:54.850Z,10.90
2022-11-24T07:23:21.750Z,10.90
2022-11-24T07:25:48.640Z,11.00
2022-11-24T07:28:15.376Z,11.40
2022-11-24T07:30:42.149Z,10.90
2022-11-24T07:33:08.847Z,11.00
2022-11-24T07:35:35.627Z,11.10
2022-11-24T07:38:02.345Z,11.00
2022-11-24T07:40:29.304Z,11.00
2022-11-24T07:42:56.063Z,11.10
2022-11-24T07:45:23.199Z,11.10
2022-11-24T07:47:50.244Z,11.20
2022-11-24T07:50:17.460Z,11.20
2022-11-24T07:52:44.223Z,11.20
2022-11-24T07:55:11.210Z,11.20
2022-11-24T07:57:37.970Z,11.30
2022-11-24T08:00:06.170Z,11.10
2022-11-24T08:02:33.889Z,11.10
2022-11-24T08:05:00.739Z,11.00
2022-11-24T08:07:27.875Z,11.00
2022-11-24T08:09:54.639Z,10.90
2022-11-24T08:12:21.966Z,10.80
2022-11-24T08:14:50.593Z,10.80
2022-11-24T08:17:18.732Z,10.80
2022-11-24T08:19:45.888Z,10.70
2022-11-24T08:22:12.659Z,10.70
2022-11-24T08:24:46.009Z,10.70
2022-11-24T08:27:14.303Z,10.60
2022-11-24T08:29:41.406Z,10.60
2022-11-24T08:32:09.347Z,10.60
2022-11-24T08:34:36.520Z,11.00
2022-11-24T08:37:05.081Z,10.60
2022-11-24T08:39:32.240Z,11.10
2022-11-24T08:41:59.748Z,10.50
2022-11-24T08:44:28.586Z,10.50
2022-11-24T08:46:57.089Z,10.60
2022-11-24T08:49:24.258Z,10.60
2022-11-24T08:51:51.429Z,10.60
2022-11-24T08:54:21.729Z,10.60
2022-11-24T08:56:49.751Z,10.60
2022-11-24T08:59:16.703Z,10.60
2022-11-24T09:01:43.827Z,11.30
2022-11-24T09:04:10.644Z,11.40
2022-11-24T09:06:37.500Z,10.60
2022-11-24T09:09:04.388Z,10.70
2022-11-24T09:11:34.133Z,10.70
2022-11-24T09:14:01.036Z,10.80
2022-11-24T09:16:29.138Z,10.80
2022-11-24T09:19:06.636Z,10.70
2022-11-24T09:21:37.688Z,10.90
2022-11-24T09:24:05.578Z,10.90
2022-11-24T09:26:35.121Z,10.90
2022-11-24T09:29:04.045Z,11.00
2022-11-24T09:31:36.300Z,11.90
2022-11-24T09:34:05.264Z,11.00
2022-11-24T09:36:32.240Z,11.00
2022-11-24T09:38:59.287Z,11.10
2022-11-24T09:42:06.610Z,11.10
2022-11-24T09:44:48.395Z,11.10
2022-11-24T09:47:27.325Z,11.20
2022-11-24T09:50:04.518Z,11.00
2022-11-24T09:52:40.440Z,11.10
2022-11-24T09:55:26.136Z,11.10
2022-11-24T09:58:17.942Z,11.10
2022-11-24T10:00:47.874Z,11.10
2022-11-24T10:03:19.873Z,11.20
2022-11-24T10:05:50.244Z,11.20
2022-11-24T10:08:22.944Z,11.30
2022-11-24T10:11:01.350Z,11.30
2022-11-24T10:13:46.824Z,11.30
2022-11-24T10:16:41.095Z,11.20
2022-11-24T10:19:37.608Z,11.20
2022-11-24T10:22:26.152Z,11.20
2022-11-24T10:25:17.306Z,11.20
2022-11-24T10:27:48.140Z,11.20
2022-11-24T10:30:18.645Z,11.20
2022-11-24T10:32:55.676Z,11.20
2022-11-24T10:35:30.354Z,11.30
2022-11-24T10:38:29.683Z,11.30
2022-11-24T10:41:07.034Z,11.40
2022-11-24T10:43:33.912Z,11.40
2022-11-24T10:46:15.264Z,11.30
2022-11-24T10:49:02.367Z,11.30
2022-11-24T10:51:48.241Z,11.30
2022-11-24T10:54:21.738Z,11.30
2022-11-24T10:56:51.974Z,11.30
2022-11-24T10:59:24.831Z,11.30
2022-11-24T11:01:52.733Z,11.30
2022-11-24T11:04:22.388Z,11.40
2022-11-24T11:06:50.345Z,11.40
2022-11-24T11:09:21.347Z,11.40
2022-11-24T11:11:49.109Z,11.40
2022-11-24T11:14:34.280Z,11.50
2022-11-24T11:17:01.199Z,11.50
2022-11-24T11:19:50.398Z,11.50
2022-11-24T11:22:27.130Z,11.50
2022-11-24T11:25:12.744Z,11.50
2022-11-24T11:27:41.156Z,11.50
2022-11-24T11:36:15.601Z,11.60
2022-11-24T11:38:44.444Z,11.90
2022-11-24T11:41:26.133Z,11.60
2022-11-24T11:44:11.323Z,11.60
2022-11-24T11:46:38.428Z,11.70
2022-11-24T11:49:05.348Z,11.70
2022-11-24T11:52:01.963Z,11.70
2022-11-24T11:54:56.734Z,11.70
2022-11-24T11:57:59.394Z,11.70
2022-11-24T12:00:26.871Z,11.60
2022-11-24T12:03:03.108Z,11.70
2022-11-24T12:05:58.067Z,11.70
2022-11-24T12:09:03.248Z,11.70
2022-11-24T12:11:33.396Z,11.70
2022-11-24T12:14:00.140Z,11.80
2022-11-24T12:16:51.279Z,12.00
2022-11-24T12:19:36.552Z,11.80
2022-11-24T12:22:12.791Z,11.80
2022-11-24T12:24:45.759Z,11.80
2022-11-24T12:27:29.155Z,11.80
2022-11-24T12:30:13.707Z,11.80
2022-11-24T12:33:29.895Z,11.80
2022-11-24T12:36:09.681Z,11.80
2022-11-24T12:38:52.113Z,11.80
2022-11-24T12:41:47.577Z,11.90
2022-11-24T12:44:39.920Z,12.00
2022-11-24T12:47:19.311Z,12.10
2022-11-24T12:49:58.671Z,12.10
2022-11-24T12:53:00.875Z,12.10
2022-11-24T12:55:29.814Z,12.20
2022-11-24T12:58:13.845Z,12.20
2022-11-24T13:01:05.067Z,12.20
2022-11-24T13:03:40.726Z,12.20
2022-11-24T13:06:14.821Z,12.20
2022-11-24T13:08:42.209Z,12.20
2022-11-24T13:11:24.200Z,12.30
2022-11-24T13:14:07.716Z,12.30
2022-11-24T13:16:38.721Z,12.30
2022-11-24T13:19:22.775Z,13.00
2022-11-24T13:22:01.282Z,12.40
2022-11-24T13:24:30.971Z,12.40
2022-11-24T13:27:16.513Z,12.30
2022-11-24T13:29:45.418Z,12.30
2022-11-24T13:32:12.363Z,12.30
2022-11-24T13:34:42.998Z,12.40
2022-11-24T13:37:32.043Z,12.30
2022-11-24T13:40:22.659Z,12.30
2022-11-24T13:43:00.442Z,12.60
2022-11-24T13:45:40.520Z,12.30
2022-11-24T13:48:20.982Z,12.30
2022-11-24T13:50:52.249Z,12.30
2022-11-24T13:53:37.248Z,12.30
2022-11-24T13:56:23.662Z,12.30
2022-11-24T13:58:54.937Z,12.30
2022-11-24T14:01:33.026Z,12.30
2022-11-24T14:04:30.580Z,12.30
2022-11-24T14:07:07.803Z,12.40
2022-11-24T14:09:45.985Z,12.40
2022-11-24T14:12:19.201Z,12.40
2022-11-24T14:14:48.592Z,12.40
2022-11-24T14:17:18.809Z,12.40
2022-11-24T14:19:48.080Z,12.40
2022-11-24T14:22:37.200Z,12.40
2022-11-24T14:25:04.390Z,12.40
2022-11-24T14:27:36.056Z,12.40
2022-11-24T14:30:05.673Z,12.40
2022-11-24T14:32:32.544Z,12.40
2022-11-24T14:34:59.637Z,12.40
2022-11-24T14:37:26.763Z,12.40
2022-11-24T14:39:53.841Z,12.40
2022-11-24T14:42:25.094Z,12.40
2022-11-24T14:45:01.222Z,12.50
2022-11-24T14:47:34.674Z,12.50
2022-11-24T14:50:13.916Z,12.40
2022-11-24T14:52:54.243Z,12.40
2022-11-24T14:55:32.373Z,12.40
2022-11-24T14:58:00.190Z,12.60
2022-11-24T15:00:33.807Z,12.40
2022-11-24T15:03:00.560Z,12.40
2022-11-24T15:05:53.588Z,12.30
2022-11-24T15:08:20.811Z,12.40
2022-11-24T15:10:48.133Z,12.40
2022-11-24T15:13:24.029Z,12.30
2022-11-24T15:16:02.555Z,12.30
2022-11-24T15:18:45.694Z,12.80
2022-11-24T15:21:18.989Z,12.30
2022-11-24T15:24:18.486Z,12.30
2022-11-24T15:26:46.146Z,12.30
2022-11-24T15:29:13.559Z,12.20
2022-11-24T15:31:44.214Z,12.20
2022-11-24T15:34:14.631Z,12.10
2022-11-24T15:36:41.441Z,12.20
2022-11-24T15:39:08.290Z,12.20
2022-11-24T15:41:35.588Z,12.20
2022-11-24T15:44:02.487Z,12.20
2022-11-24T15:46:30.806Z,12.20
2022-11-24T15:48:59.050Z,12.10
2022-11-24T15:51:26.770Z,12.00
2022-11-24T15:54:00.797Z,12.00
2022-11-24T15:56:34.438Z,11.90
2022-11-24T15:59:02.256Z,11.90
2022-11-24T16:01:33.825Z,11.90
2022-11-24T16:04:02.123Z,11.90
2022-11-24T16:06:29.184Z,11.90
2022-11-24T16:08:57.734Z,11.90
2022-11-24T16:11:24.627Z,13.40
2022-11-24T16:13:53.933Z,11.80
2022-11-24T16:16:23.335Z,11.80
2022-11-24T16:18:50.656Z,11.70
2022-11-24T16:21:17.415Z,11.80
2022-11-24T16:23:44.380Z,11.80
2022-11-24T16:26:11.183Z,11.90
2022-11-24T16:28:38.104Z,11.80
2022-11-24T16:31:05.216Z,11.90
2022-11-24T16:33:32.136Z,11.70
2022-11-24T16:35:59.042Z,11.70
2022-11-24T16:38:25.927Z,11.70
2022-11-24T16:40:54.372Z,11.80
2022-11-24T16:43:21.545Z,11.80
2022-11-24T16:46:17.894Z,11.80
2022-11-24T16:48:46.269Z,11.70
2022-11-24T16:51:14.048Z,11.70
2022-11-24T16:53:41.080Z,11.90
2022-11-24T16:56:08.364Z,12.50
2022-11-24T16:58:38.471Z,12.50
2022-11-24T17:01:07.117Z,11.70
2022-11-24T17:03:38.323Z,11.60
2022-11-24T17:06:07.689Z,11.60
2022-11-24T17:08:36.072Z,11.60
2022-11-24T17:11:07.747Z,11.80
2022-11-24T17:13:34.780Z,11.60
2022-11-24T17:16:06.147Z,11.50
2022-11-24T17:18:33.754Z,11.50
2022-11-24T17:21:07.770Z,11.40
2022-11-24T17:23:36.893Z,11.40
2022-11-24T17:26:06.468Z,12.10
2022-11-24T17:28:34.828Z,11.40
2022-11-24T17:31:08.961Z,11.30
2022-11-24T17:33:36.345Z,11.30
2022-11-24T17:36:06.862Z,11.30
2022-11-24T17:38:35.162Z,11.30
2022-11-24T17:41:02.044Z,11.30
2022-11-24T17:43:29.352Z,11.30
2022-11-24T17:45:57.855Z,11.20
2022-11-24T17:48:25.254Z,11.20
2022-11-24T17:51:09.953Z,11.40
2022-11-24T17:53:37.682Z,11.40
2022-11-24T17:56:05.663Z,11.20
2022-11-24T17:58:37.182Z,11.10
2022-11-24T18:01:07.341Z,11.20
2022-11-24T18:03:34.432Z,11.10
2022-11-24T18:06:13.520Z,11.20
2022-11-24T18:08:42.857Z,11.80
2022-11-24T18:11:12.489Z,11.20
2022-11-24T18:13:56.615Z,11.10
2022-11-24T18:16:28.445Z,11.20
2022-11-24T18:19:07.834Z,11.10
2022-11-24T18:21:40.059Z,11.00
2022-11-24T18:24:11.395Z,10.90
2022-11-24T18:26:39.307Z,10.90
2022-11-24T18:29:06.167Z,10.90
2022-11-24T18:31:35.606Z,11.00
2022-11-24T18:34:04.628Z,11.30
2022-11-24T18:36:32.745Z,10.90
2022-11-24T18:39:08.087Z,10.90
2022-11-24T18:41:35.715Z,10.90
2022-11-24T18:44:03.355Z,10.90
2022-11-24T18:46:30.330Z,11.20
2022-11-24T18:48:57.157Z,10.80
2022-11-24T18:51:23.976Z,11.00
2022-11-24T18:53:58.221Z,10.70
2022-11-24T18:56:25.874Z,10.60
2022-11-24T18:58:54.650Z,10.60
2022-11-24T19:01:24.127Z,10.50
2022-11-24T19:03:53.368Z,10.80
2022-11-24T19:06:31.941Z,10.50
2022-11-24T19:09:03.894Z,10.40
2022-11-24T19:11:33.936Z,10.40
2022-11-24T19:14:02.293Z,10.40
2022-11-24T19:16:29.119Z,10.40
2022-11-24T19:19:02.728Z,10.20
2022-11-24T19:21:35.373Z,10.50
2022-11-24T19:24:05.246Z,10.20
2022-11-24T19:26:34.824Z,10.10
2022-11-24T19:29:02.076Z,10.10
2022-11-24T19:31:29.005Z,10.10
2022-11-24T19:34:00.091Z,10.00
2022-11-24T19:36:27.395Z,10.10
2022-11-24T19:38:56.278Z,10.00
2022-11-24T19:41:26.018Z,9.90
2022-11-24T19:43:56.635Z,9.90
2022-11-24T19:46:27.539Z,9.90
2022-11-24T19:48:57.313Z,9.90
2022-11-24T19:51:32.359Z,9.80
2022-11-24T19:54:00.251Z,9.80
2022-11-24T19:56:29.541Z,10.50
2022-11-24T19:58:56.623Z,9.70
2022-11-24T20:01:27.835Z,9.70
2022-11-24T20:04:22.652Z,9.60
2022-11-24T20:06:49.549Z,9.50
2022-11-24T20:09:21.398Z,9.50
2022-11-24T20:11:49.148Z,9.50
2022-11-24T20:14:18.336Z,9.50
2022-11-24T20:16:47.090Z,10.50
2022-11-24T20:19:16.248Z,9.70
2022-11-24T20:21:46.384Z,9.50
2022-11-24T20:24:18.869Z,9.50
2022-11-24T20:26:48.685Z,10.10
2022-11-24T20:29:16.373Z,9.40
2022-11-24T20:31:48.727Z,9.40
2022-11-24T20:34:16.128Z,9.40
2022-11-24T20:36:45.253Z,9.40
2022-11-24T20:39:16.065Z,10.30
2022-11-24T20:41:42.970Z,9.40
2022-11-24T20:44:13.795Z,9.30
2022-11-24T20:46:42.435Z,9.30
2022-11-24T20:49:12.260Z,9.30
2022-11-24T20:51:43.973Z,9.30
2022-11-24T20:54:12.959Z,9.20
2022-11-24T20:56:41.727Z,9.20
2022-11-24T20:59:11.392Z,9.20
2022-11-24T21:01:42.501Z,9.00
2022-11-24T21:04:12.545Z,9.70
2022-11-24T21:06:39.713Z,9.10
2022-11-24T21:09:08.199Z,9.10
2022-11-24T21:11:35.896Z,9.10
2022-11-24T21:14:03.105Z,9.10
2022-11-24T21:16:32.827Z,9.10
2022-11-24T21:19:03.145Z,9.10
2022-11-24T21:21:34.610Z,9.00
2022-11-24T21:24:03.634Z,9.00
2022-11-24T21:26:30.434Z,8.90
2022-11-24T21:28:57.678Z,8.90
2022-11-24T21:31:24.680Z,8.80
2022-11-24T21:33:53.270Z,8.70
2022-11-24T21:36:22.932Z,8.70
2022-11-24T21:38:54.755Z,8.60
2022-11-24T21:41:23.136Z,8.60
2022-11-24T21:43:50.278Z,8.60
2022-11-24T21:46:17.612Z,8.60
2022-11-24T21:48:44.916Z,8.70
2022-11-24T21:51:16.591Z,8.50
2022-11-24T21:53:44.646Z,8.60
2022-11-24T21:56:14.975Z,8.60
2022-11-24T21:58:50.071Z,9.70
2022-11-24T22:01:18.793Z,8.70
2022-11-24T22:03:46.143Z,8.60
2022-11-24T22:06:13.230Z,8.70
2022-11-24T22:08:40.014Z,8.60
2022-11-24T22:11:19.856Z,8.70
2022-11-24T22:13:47.307Z,8.60
2022-11-24T22:16:22.130Z,8.60
2022-11-24T22:18:49.626Z,8.60
2022-11-24T22:21:25.600Z,8.60
2022-11-24T22:23:52.866Z,8.60
2022-11-24T22:26:22.142Z,8.50
2022-11-24T22:28:49.748Z,8.60
2022-11-24T22:31:22.916Z,8.60
2022-11-24T22:33:50.754Z,8.70
2022-11-24T22:36:20.685Z,8.50
2022-11-24T22:38:52.366Z,8.40
2022-11-24T22:41:19.438Z,8.70
2022-11-24T22:43:46.996Z,8.40
2022-11-24T22:46:19.353Z,8.40
2022-11-24T22:48:47.439Z,8.30
2022-11-24T22:51:20.557Z,8.30
2022-11-24T22:53:49.531Z,8.20
2022-11-24T22:56:17.023Z,8.20
2022-11-24T22:58:44.216Z,8.10
2022-11-24T23:01:18.022Z,8.10
2022-11-24T23:03:45.090Z,8.20
2022-11-24T23:06:18.443Z,8.20
2022-11-24T23:08:45.270Z,8.20
2022-11-24T23:11:32.713Z,8.20
2022-11-24T23:14:03.986Z,8.20
2022-11-24T23:16:30.867Z,8.20
2022-11-24T23:18:58.984Z,8.20
2022-11-24T23:21:28.616Z,8.20
2022-11-24T23:23:55.732Z,8.30
2022-11-24T23:26:26.018Z,8.30
2022-11-24T23:28:52.728Z,8.20
2022-11-24T23:31:22.140Z,8.20
2022-11-24T23:33:49.032Z,8.40
2022-11-24T23:36:18.355Z,8.10
2022-11-24T23:38:45.458Z,8.60
2022-11-24T23:41:24.072Z,8.10
2022-11-24T23:43:51.043Z,7.90
2022-11-24T23:46:20.604Z,8.00
2022-11-24T23:48:47.960Z,8.00
2022-11-24T23:51:20.382Z,8.00
2022-11-24T23:53:47.962Z,8.10
2022-11-24T23:56:16.998Z,8.80
2022-11-24T23:58:44.458Z,7.90
